sensor_id;sensor_type;location;lat;lon;timestamp;pressure;altitude;pressure_sealevel;temperature;humidity
59654;BME280;66556;52.008;5.432;2023-03-12T00:02:01;101165.0;;;12.47;36.74
59654;BME280;66556;52.008;5.432;2023-03-12T00:03:38;101162.0;;;12.33;36.82
59654;BME280;66556;52.008;5.432;2023-03-12T00:05:14;101162.0;;;12.04;36.89
59654;BME280;66556;52.008;5.432;2023-03-12T00:08:27;101159.0;;;12.67;36.19
59654;BME280;66556;52.008;5.432;2023-03-12T00:10:05;101157.0;;;12.47;36.51
59654;BME280;66556;52.008;5.432;2023-03-12T00:13:18;101142.0;;;12.53;36.33
59654;BME280;66556;52.008;5.432;2023-03-12T00:16:30;101140.0;;;11.99;37.21
59654;BME280;66556;52.008;5.432;2023-03-12T00:18:07;101140.0;;;12.44;36.69
59654;BME280;66556;52.008;5.432;2023-03-12T00:19:43;101142.0;;;11.76;38.07
59654;BME280;66556;52.008;5.432;2023-03-12T00:22:58;101137.0;;;12.17;37.25
59654;BME280;66556;52.008;5.432;2023-03-12T00:24:35;101138.0;;;12.55;36.39
59654;BME280;66556;52.008;5.432;2023-03-12T00:26:12;101135.0;;;12.31;36.62
59654;BME280;66556;52.008;5.432;2023-03-12T00:29:25;101136.0;;;12.51;36.53
59654;BME280;66556;52.008;5.432;2023-03-12T00:31:01;101137.0;;;12.55;36.75
59654;BME280;66556;52.008;5.432;2023-03-12T00:32:38;101135.0;;;12.39;36.71
59654;BME280;66556;52.008;5.432;2023-03-12T00:34:14;101130.0;;;11.93;37.51
59654;BME280;66556;52.008;5.432;2023-03-12T00:37:27;101130.0;;;12.19;37.42
59654;BME280;66556;52.008;5.432;2023-03-12T00:39:04;101125.0;;;11.72;38.54
59654;BME280;66556;52.008;5.432;2023-03-12T00:40:40;101128.0;;;12.04;38.0
59654;BME280;66556;52.008;5.432;2023-03-12T00:43:53;101124.0;;;11.91;37.92
59654;BME280;66556;52.008;5.432;2023-03-12T00:45:29;101126.0;;;12.27;37.69
59654;BME280;66556;52.008;5.432;2023-03-12T00:47:06;101127.0;;;12.23;37.49
59654;BME280;66556;52.008;5.432;2023-03-12T00:50:19;101131.0;;;12.16;37.42
59654;BME280;66556;52.008;5.432;2023-03-12T00:51:56;101128.0;;;12.15;37.53
59654;BME280;66556;52.008;5.432;2023-03-12T00:53:33;101130.0;;;12.53;37.06
59654;BME280;66556;52.008;5.432;2023-03-12T00:55:09;101122.0;;;12.66;37.11
59654;BME280;66556;52.008;5.432;2023-03-12T00:58:22;101124.0;;;12.45;37.5
59654;BME280;66556;52.008;5.432;2023-03-12T00:59:59;101124.0;;;12.25;37.61
59654;BME280;66556;52.008;5.432;2023-03-12T01:01:35;101131.0;;;12.37;37.96
59654;BME280;66556;52.008;5.432;2023-03-12T01:04:48;101125.0;;;12.79;36.78
59654;BME280;66556;52.008;5.432;2023-03-12T01:06:25;101120.0;;;12.71;36.85
59654;BME280;66556;52.008;5.432;2023-03-12T01:08:02;101112.0;;;12.7;36.83
59654;BME280;66556;52.008;5.432;2023-03-12T01:11:17;101108.0;;;12.79;36.54
59654;BME280;66556;52.008;5.432;2023-03-12T01:12:54;101109.0;;;12.64;36.82
59654;BME280;66556;52.008;5.432;2023-03-12T01:14:30;101103.0;;;12.53;36.71
59654;BME280;66556;52.008;5.432;2023-03-12T01:16:06;101095.0;;;12.79;36.85
59654;BME280;66556;52.008;5.432;2023-03-12T01:19:19;101087.0;;;12.33;37.35
59654;BME280;66556;52.008;5.432;2023-03-12T01:20:55;101084.0;;;12.17;38.17
59654;BME280;66556;52.008;5.432;2023-03-12T01:22:33;101083.0;;;12.54;37.31
59654;BME280;66556;52.008;5.432;2023-03-12T01:25:45;101087.0;;;12.12;37.85
59654;BME280;66556;52.008;5.432;2023-03-12T01:27:22;101081.0;;;12.16;37.67
59654;BME280;66556;52.008;5.432;2023-03-12T01:28:58;101086.0;;;12.17;37.9
59654;BME280;66556;52.008;5.432;2023-03-12T01:32:12;101088.0;;;12.27;37.5
59654;BME280;66556;52.008;5.432;2023-03-12T01:33:49;101087.0;;;12.32;37.08
59654;BME280;66556;52.008;5.432;2023-03-12T01:35:27;101085.0;;;12.49;37.24
59654;BME280;66556;52.008;5.432;2023-03-12T01:37:03;101086.0;;;12.88;36.69
59654;BME280;66556;52.008;5.432;2023-03-12T01:40:17;101084.0;;;13.06;36.0
59654;BME280;66556;52.008;5.432;2023-03-12T01:41:56;101088.0;;;12.78;36.78
59654;BME280;66556;52.008;5.432;2023-03-12T01:43:34;101086.0;;;12.81;36.71
59654;BME280;66556;52.008;5.432;2023-03-12T01:48:53;101083.0;;;13.15;36.17
59654;BME280;66556;52.008;5.432;2023-03-12T01:50:35;101084.0;;;12.65;36.64
59654;BME280;66556;52.008;5.432;2023-03-12T01:52:13;101083.0;;;12.79;36.61
59654;BME280;66556;52.008;5.432;2023-03-12T01:53:55;101073.0;;;13.17;35.87
59654;BME280;66556;52.008;5.432;2023-03-12T01:57:12;101073.0;;;13.25;35.36
59654;BME280;66556;52.008;5.432;2023-03-12T01:58:55;101067.0;;;13.15;36.04
59654;BME280;66556;52.008;5.432;2023-03-12T02:00:34;101071.0;;;13.07;35.49
59654;BME280;66556;52.008;5.432;2023-03-12T02:02:11;101067.0;;;13.28;35.62
59654;BME280;66556;52.008;5.432;2023-03-12T02:05:32;101067.0;;;13.14;36.01
59654;BME280;66556;52.008;5.432;2023-03-12T02:07:13;101063.0;;;13.45;35.56
59654;BME280;66556;52.008;5.432;2023-03-12T02:08:52;101059.0;;;13.48;35.57
59654;BME280;66556;52.008;5.432;2023-03-12T02:10:28;101055.0;;;13.42;35.46
59654;BME280;66556;52.008;5.432;2023-03-12T02:13:42;101050.0;;;13.28;35.57
59654;BME280;66556;52.008;5.432;2023-03-12T02:15:19;101053.0;;;13.44;35.49
59654;BME280;66556;52.008;5.432;2023-03-12T02:16:57;101046.0;;;13.31;36.06
59654;BME280;66556;52.008;5.432;2023-03-12T02:20:14;101045.0;;;13.36;36.01
59654;BME280;66556;52.008;5.432;2023-03-12T02:21:56;101037.0;;;12.95;36.51
59654;BME280;66556;52.008;5.432;2023-03-12T02:23:37;101040.0;;;13.33;36.06
59654;BME280;66556;52.008;5.432;2023-03-12T02:25:25;101041.0;;;13.25;35.67
59654;BME280;66556;52.008;5.432;2023-03-12T02:28:42;101038.0;;;13.16;36.01
59654;BME280;66556;52.008;5.432;2023-03-12T02:30:19;101033.0;;;13.16;36.33
59654;BME280;66556;52.008;5.432;2023-03-12T02:31:57;101024.0;;;13.0;37.29
59654;BME280;66556;52.008;5.432;2023-03-12T02:33:36;101026.0;;;13.23;36.67
59654;BME280;66556;52.008;5.432;2023-03-12T02:36:50;101017.0;;;13.21;36.5
59654;BME280;66556;52.008;5.432;2023-03-12T02:38:32;101008.0;;;13.38;36.18
59654;BME280;66556;52.008;5.432;2023-03-12T02:40:17;101006.0;;;13.46;36.35
59654;BME280;66556;52.008;5.432;2023-03-12T02:41:58;101002.0;;;13.06;36.94
59654;BME280;66556;52.008;5.432;2023-03-12T02:45:13;101002.0;;;12.92;37.1
59654;BME280;66556;52.008;5.432;2023-03-12T02:46:52;100998.0;;;12.9;37.06
59654;BME280;66556;52.008;5.432;2023-03-12T02:48:30;100998.0;;;13.2;37.1
59654;BME280;66556;52.008;5.432;2023-03-12T02:51:45;101012.0;;;13.05;37.22
59654;BME280;66556;52.008;5.432;2023-03-12T02:53:22;101000.0;;;13.25;36.71
59654;BME280;66556;52.008;5.432;2023-03-12T02:54:58;100989.0;;;13.33;36.37
59654;BME280;66556;52.008;5.432;2023-03-12T02:56:35;100984.0;;;13.04;36.99
59654;BME280;66556;52.008;5.432;2023-03-12T02:59:48;100985.0;;;12.99;37.39
59654;BME280;66556;52.008;5.432;2023-03-12T03:01:25;100987.0;;;12.81;37.42
59654;BME280;66556;52.008;5.432;2023-03-12T03:03:01;100988.0;;;13.12;37.28
59654;BME280;66556;52.008;5.432;2023-03-12T03:06:15;100985.0;;;12.6;37.94
59654;BME280;66556;52.008;5.432;2023-03-12T03:07:51;100988.0;;;12.29;38.18
59654;BME280;66556;52.008;5.432;2023-03-12T03:09:27;100980.0;;;12.41;38.68
59654;BME280;66556;52.008;5.432;2023-03-12T03:12:41;100975.0;;;12.65;38.65
59654;BME280;66556;52.008;5.432;2023-03-12T03:14:17;100968.0;;;12.63;38.61
59654;BME280;66556;52.008;5.432;2023-03-12T03:15:54;100965.0;;;12.39;38.51
59654;BME280;66556;52.008;5.432;2023-03-12T03:17:30;100959.0;;;12.72;37.9
59654;BME280;66556;52.008;5.432;2023-03-12T03:20:43;100969.0;;;12.08;39.12
59654;BME280;66556;52.008;5.432;2023-03-12T03:22:21;100973.0;;;11.95;39.85
59654;BME280;66556;52.008;5.432;2023-03-12T03:23:58;100968.0;;;12.54;38.64
59654;BME280;66556;52.008;5.432;2023-03-12T03:27:10;100964.0;;;12.54;38.71
59654;BME280;66556;52.008;5.432;2023-03-12T03:28:47;100959.0;;;12.54;38.68
59654;BME280;66556;52.008;5.432;2023-03-12T03:30:24;100953.0;;;11.94;39.54
59654;BME280;66556;52.008;5.432;2023-03-12T03:33:38;100949.0;;;12.72;37.81
59654;BME280;66556;52.008;5.432;2023-03-12T03:35:15;100945.0;;;12.62;38.12
59654;BME280;66556;52.008;5.432;2023-03-12T03:36:52;100941.0;;;11.97;39.08
59654;BME280;66556;52.008;5.432;2023-03-12T03:38:30;100941.0;;;12.22;39.01
59654;BME280;66556;52.008;5.432;2023-03-12T03:41:47;100942.0;;;12.21;39.46
59654;BME280;66556;52.008;5.432;2023-03-12T03:43:24;100945.0;;;12.07;39.97
59654;BME280;66556;52.008;5.432;2023-03-12T03:45:01;100940.0;;;11.99;39.78
59654;BME280;66556;52.008;5.432;2023-03-12T03:48:15;100936.0;;;12.37;39.56
59654;BME280;66556;52.008;5.432;2023-03-12T03:49:51;100930.0;;;11.97;39.99
59654;BME280;66556;52.008;5.432;2023-03-12T03:51:28;100927.0;;;11.9;40.53
59654;BME280;66556;52.008;5.432;2023-03-12T03:53:05;100917.0;;;11.52;41.19
59654;BME280;66556;52.008;5.432;2023-03-12T03:56:19;100912.0;;;11.66;41.43
59654;BME280;66556;52.008;5.432;2023-03-12T03:57:56;100915.0;;;11.64;41.12
59654;BME280;66556;52.008;5.432;2023-03-12T03:59:32;100922.0;;;11.64;41.05
59654;BME280;66556;52.008;5.432;2023-03-12T04:02:48;100927.0;;;11.46;41.32
59654;BME280;66556;52.008;5.432;2023-03-12T04:04:24;100925.0;;;11.31;41.35
59654;BME280;66556;52.008;5.432;2023-03-12T04:06:02;100927.0;;;11.41;41.66
59654;BME280;66556;52.008;5.432;2023-03-12T04:07:39;100919.0;;;11.1;42.34
59654;BME280;66556;52.008;5.432;2023-03-12T04:10:51;100914.0;;;11.15;42.56
59654;BME280;66556;52.008;5.432;2023-03-12T04:12:28;100910.0;;;11.08;43.15
59654;BME280;66556;52.008;5.432;2023-03-12T04:14:05;100921.0;;;10.85;43.17
59654;BME280;66556;52.008;5.432;2023-03-12T04:17:22;100913.0;;;11.02;43.61
59654;BME280;66556;52.008;5.432;2023-03-12T04:18:59;100908.0;;;11.23;42.79
59654;BME280;66556;52.008;5.432;2023-03-12T04:20:35;100903.0;;;11.04;43.35
59654;BME280;66556;52.008;5.432;2023-03-12T04:23:47;100901.0;;;11.52;42.75
59654;BME280;66556;52.008;5.432;2023-03-12T04:25:23;100901.0;;;11.23;43.32
59654;BME280;66556;52.008;5.432;2023-03-12T04:27:00;100902.0;;;11.68;42.28
59654;BME280;66556;52.008;5.432;2023-03-12T04:28:36;100905.0;;;11.34;43.06
59654;BME280;66556;52.008;5.432;2023-03-12T04:31:49;100905.0;;;11.03;43.84
59654;BME280;66556;52.008;5.432;2023-03-12T04:33:25;100900.0;;;11.53;43.13
59654;BME280;66556;52.008;5.432;2023-03-12T04:35:03;100893.0;;;11.22;43.69
59654;BME280;66556;52.008;5.432;2023-03-12T04:38:17;100895.0;;;11.25;43.69
59654;BME280;66556;52.008;5.432;2023-03-12T04:39:54;100894.0;;;11.44;43.73
59654;BME280;66556;52.008;5.432;2023-03-12T04:41:30;100892.0;;;11.62;43.85
59654;BME280;66556;52.008;5.432;2023-03-12T04:44:42;100884.0;;;11.32;44.27
59654;BME280;66556;52.008;5.432;2023-03-12T04:46:18;100878.0;;;11.55;43.72
59654;BME280;66556;52.008;5.432;2023-03-12T04:47:54;100870.0;;;11.5;43.98
59654;BME280;66556;52.008;5.432;2023-03-12T04:49:30;100871.0;;;11.48;44.36
59654;BME280;66556;52.008;5.432;2023-03-12T04:52:43;100867.0;;;11.4;44.61
59654;BME280;66556;52.008;5.432;2023-03-12T04:54:19;100865.0;;;11.35;45.11
59654;BME280;66556;52.008;5.432;2023-03-12T04:55:56;100856.0;;;11.23;44.96
59654;BME280;66556;52.008;5.432;2023-03-12T04:59:08;100847.0;;;11.91;43.53
59654;BME280;66556;52.008;5.432;2023-03-12T05:00:46;100844.0;;;11.85;43.45
59654;BME280;66556;52.008;5.432;2023-03-12T05:02:23;100842.0;;;11.8;43.62
59654;BME280;66556;52.008;5.432;2023-03-12T05:05:37;100839.0;;;12.21;42.95
59654;BME280;66556;52.008;5.432;2023-03-12T05:07:13;100835.0;;;11.45;44.24
59654;BME280;66556;52.008;5.432;2023-03-12T05:08:51;100824.0;;;11.44;44.23
59654;BME280;66556;52.008;5.432;2023-03-12T05:10:27;100820.0;;;11.65;44.12
59654;BME280;66556;52.008;5.432;2023-03-12T05:13:41;100817.0;;;11.5;44.63
59654;BME280;66556;52.008;5.432;2023-03-12T05:15:19;100808.0;;;11.33;44.83
59654;BME280;66556;52.008;5.432;2023-03-12T05:16:55;100808.0;;;11.25;45.53
59654;BME280;66556;52.008;5.432;2023-03-12T05:20:10;100805.0;;;11.39;45.22
59654;BME280;66556;52.008;5.432;2023-03-12T05:21:47;100796.0;;;11.67;45.31
59654;BME280;66556;52.008;5.432;2023-03-12T05:23:23;100800.0;;;11.63;45.13
59654;BME280;66556;52.008;5.432;2023-03-12T05:25:01;100794.0;;;11.31;45.91
59654;BME280;66556;52.008;5.432;2023-03-12T05:28:14;100798.0;;;11.4;45.46
59654;BME280;66556;52.008;5.432;2023-03-12T05:29:52;100806.0;;;11.92;44.14
59654;BME280;66556;52.008;5.432;2023-03-12T05:31:28;100802.0;;;11.74;44.8
59654;BME280;66556;52.008;5.432;2023-03-12T05:34:41;100803.0;;;11.42;44.78
59654;BME280;66556;52.008;5.432;2023-03-12T05:36:18;100805.0;;;11.72;44.84
59654;BME280;66556;52.008;5.432;2023-03-12T05:37:55;100805.0;;;11.79;44.36
59654;BME280;66556;52.008;5.432;2023-03-12T05:41:09;100800.0;;;11.76;44.82
59654;BME280;66556;52.008;5.432;2023-03-12T05:42:54;100797.0;;;12.05;44.45
59654;BME280;66556;52.008;5.432;2023-03-12T05:44:31;100794.0;;;11.49;45.91
59654;BME280;66556;52.008;5.432;2023-03-12T05:46:08;100793.0;;;11.58;45.84
59654;BME280;66556;52.008;5.432;2023-03-12T05:49:21;100790.0;;;11.48;45.95
59654;BME280;66556;52.008;5.432;2023-03-12T05:50:57;100784.0;;;11.43;46.19
59654;BME280;66556;52.008;5.432;2023-03-12T05:52:33;100787.0;;;11.47;46.0
59654;BME280;66556;52.008;5.432;2023-03-12T05:55:46;100786.0;;;11.62;46.1
59654;BME280;66556;52.008;5.432;2023-03-12T05:57:22;100793.0;;;11.85;45.89
59654;BME280;66556;52.008;5.432;2023-03-12T05:58:58;100792.0;;;11.58;46.25
59654;BME280;66556;52.008;5.432;2023-03-12T06:00:35;100786.0;;;11.32;47.5
59654;BME280;66556;52.008;5.432;2023-03-12T06:03:48;100786.0;;;11.53;46.85
59654;BME280;66556;52.008;5.432;2023-03-12T06:05:24;100792.0;;;11.27;47.42
59654;BME280;66556;52.008;5.432;2023-03-12T06:07:00;100788.0;;;11.55;47.49
59654;BME280;66556;52.008;5.432;2023-03-12T06:10:14;100783.0;;;11.52;47.26
59654;BME280;66556;52.008;5.432;2023-03-12T06:11:51;100792.0;;;11.83;46.83
59654;BME280;66556;52.008;5.432;2023-03-12T06:13:27;100791.0;;;11.47;47.86
59654;BME280;66556;52.008;5.432;2023-03-12T06:16:40;100794.0;;;11.44;48.05
59654;BME280;66556;52.008;5.432;2023-03-12T06:18:16;100792.0;;;11.41;48.49
59654;BME280;66556;52.008;5.432;2023-03-12T06:19:52;100791.0;;;11.59;48.11
59654;BME280;66556;52.008;5.432;2023-03-12T06:21:30;100786.0;;;11.5;48.55
59654;BME280;66556;52.008;5.432;2023-03-12T06:24:44;100792.0;;;11.66;48.29
59654;BME280;66556;52.008;5.432;2023-03-12T06:26:21;100800.0;;;11.28;49.36
59654;BME280;66556;52.008;5.432;2023-03-12T06:27:58;100793.0;;;10.95;50.91
59654;BME280;66556;52.008;5.432;2023-03-12T06:31:10;100787.0;;;11.44;50.5
59654;BME280;66556;52.008;5.432;2023-03-12T06:32:46;100795.0;;;11.11;51.55
59654;BME280;66556;52.008;5.432;2023-03-12T06:34:23;100783.0;;;11.34;52.08
59654;BME280;66556;52.008;5.432;2023-03-12T06:37:40;100792.0;;;11.1;52.53
59654;BME280;66556;52.008;5.432;2023-03-12T06:39:17;100786.0;;;11.2;53.11
59654;BME280;66556;52.008;5.432;2023-03-12T06:40:54;100778.0;;;11.43;53.04
59654;BME280;66556;52.008;5.432;2023-03-12T06:42:31;100777.0;;;11.41;53.08
59654;BME280;66556;52.008;5.432;2023-03-12T06:45:44;100772.0;;;11.51;53.52
59654;BME280;66556;52.008;5.432;2023-03-12T06:47:20;100769.0;;;11.71;53.17
59654;BME280;66556;52.008;5.432;2023-03-12T06:48:57;100765.0;;;11.45;54.11
59654;BME280;66556;52.008;5.432;2023-03-12T06:52:09;100764.0;;;11.33;54.65
59654;BME280;66556;52.008;5.432;2023-03-12T06:53:46;100768.0;;;11.4;54.53
59654;BME280;66556;52.008;5.432;2023-03-12T06:55:22;100760.0;;;11.42;55.06
59654;BME280;66556;52.008;5.432;2023-03-12T06:58:35;100760.0;;;11.6;54.86
59654;BME280;66556;52.008;5.432;2023-03-12T07:00:11;100753.0;;;11.69;54.97
59654;BME280;66556;52.008;5.432;2023-03-12T07:01:49;100756.0;;;11.46;55.34
59654;BME280;66556;52.008;5.432;2023-03-12T07:03:25;100755.0;;;11.73;55.59
59654;BME280;66556;52.008;5.432;2023-03-12T07:06:37;100750.0;;;11.59;55.99
59654;BME280;66556;52.008;5.432;2023-03-12T07:08:14;100739.0;;;10.9;58.5
59654;BME280;66556;52.008;5.432;2023-03-12T07:09:50;100731.0;;;11.14;57.83
59654;BME280;66556;52.008;5.432;2023-03-12T07:13:03;100725.0;;;10.97;59.04
59654;BME280;66556;52.008;5.432;2023-03-12T07:14:39;100725.0;;;11.37;57.73
59654;BME280;66556;52.008;5.432;2023-03-12T07:16:15;100725.0;;;11.6;57.2
59654;BME280;66556;52.008;5.432;2023-03-12T07:19:28;100731.0;;;11.57;57.32
59654;BME280;66556;52.008;5.432;2023-03-12T07:21:05;100730.0;;;11.29;58.3
59654;BME280;66556;52.008;5.432;2023-03-12T07:22:41;100732.0;;;11.36;58.17
59654;BME280;66556;52.008;5.432;2023-03-12T07:24:18;100728.0;;;11.41;58.38
59654;BME280;66556;52.008;5.432;2023-03-12T07:27:30;100731.0;;;11.31;58.38
59654;BME280;66556;52.008;5.432;2023-03-12T07:29:06;100733.0;;;10.92;60.06
59654;BME280;66556;52.008;5.432;2023-03-12T07:30:42;100734.0;;;11.31;59.22
59654;BME280;66556;52.008;5.432;2023-03-12T07:33:55;100726.0;;;11.13;59.99
59654;BME280;66556;52.008;5.432;2023-03-12T07:35:34;100734.0;;;11.27;59.68
59654;BME280;66556;52.008;5.432;2023-03-12T07:37:10;100730.0;;;11.12;60.02
59654;BME280;66556;52.008;5.432;2023-03-12T07:40:22;100735.0;;;11.69;58.78
59654;BME280;66556;52.008;5.432;2023-03-12T07:41:58;100742.0;;;11.42;58.74
59654;BME280;66556;52.008;5.432;2023-03-12T07:43:34;100741.0;;;11.06;60.69
59654;BME280;66556;52.008;5.432;2023-03-12T07:45:10;100739.0;;;11.3;59.74
59654;BME280;66556;52.008;5.432;2023-03-12T07:48:22;100739.0;;;11.38;60.45
59654;BME280;66556;52.008;5.432;2023-03-12T07:49:58;100744.0;;;11.43;59.99
59654;BME280;66556;52.008;5.432;2023-03-12T07:51:34;100742.0;;;11.51;60.28
59654;BME280;66556;52.008;5.432;2023-03-12T07:54:46;100745.0;;;11.89;59.24
59654;BME280;66556;52.008;5.432;2023-03-12T07:56:22;100755.0;;;11.78;59.21
59654;BME280;66556;52.008;5.432;2023-03-12T07:57:58;100755.0;;;12.9;55.02
59654;BME280;66556;52.008;5.432;2023-03-12T08:01:11;100755.0;;;12.15;57.87
59654;BME280;66556;52.008;5.432;2023-03-12T08:02:47;100759.0;;;12.0;58.42
59654;BME280;66556;52.008;5.432;2023-03-12T08:04:23;100750.0;;;12.48;57.77
59654;BME280;66556;52.008;5.432;2023-03-12T08:07:37;100755.0;;;12.68;56.27
59654;BME280;66556;52.008;5.432;2023-03-12T08:09:14;100755.0;;;12.68;56.86
59654;BME280;66556;52.008;5.432;2023-03-12T08:10:51;100751.0;;;12.85;55.8
59654;BME280;66556;52.008;5.432;2023-03-12T08:12:28;100752.0;;;12.41;57.36
59654;BME280;66556;52.008;5.432;2023-03-12T08:15:42;100751.0;;;12.29;58.21
59654;BME280;66556;52.008;5.432;2023-03-12T08:17:19;100749.0;;;12.47;57.76
59654;BME280;66556;52.008;5.432;2023-03-12T08:18:56;100757.0;;;12.31;58.43
59654;BME280;66556;52.008;5.432;2023-03-12T08:22:10;100746.0;;;12.58;58.13
59654;BME280;66556;52.008;5.432;2023-03-12T08:23:47;100749.0;;;12.25;59.26
59654;BME280;66556;52.008;5.432;2023-03-12T08:25:24;100745.0;;;12.34;59.93
59654;BME280;66556;52.008;5.432;2023-03-12T08:27:01;100755.0;;;12.55;59.27
59654;BME280;66556;52.008;5.432;2023-03-12T08:30:14;100750.0;;;12.68;59.14
59654;BME280;66556;52.008;5.432;2023-03-12T08:31:50;100740.0;;;12.89;58.56
59654;BME280;66556;52.008;5.432;2023-03-12T08:33:28;100745.0;;;12.7;58.96
59654;BME280;66556;52.008;5.432;2023-03-12T08:36:41;100745.0;;;12.71;58.93
59654;BME280;66556;52.008;5.432;2023-03-12T08:38:18;100737.0;;;12.85;58.55
59654;BME280;66556;52.008;5.432;2023-03-12T08:39:55;100741.0;;;12.88;58.76
59654;BME280;66556;52.008;5.432;2023-03-12T08:43:08;100739.0;;;13.45;57.3
59654;BME280;66556;52.008;5.432;2023-03-12T08:44:44;100737.0;;;12.98;58.9
59654;BME280;66556;52.008;5.432;2023-03-12T08:46:20;100735.0;;;13.06;58.91
59654;BME280;66556;52.008;5.432;2023-03-12T08:47:57;100744.0;;;12.97;59.19
59654;BME280;66556;52.008;5.432;2023-03-12T08:51:09;100750.0;;;13.13;58.97
59654;BME280;66556;52.008;5.432;2023-03-12T08:52:46;100755.0;;;13.21;58.22
59654;BME280;66556;52.008;5.432;2023-03-12T08:54:23;100750.0;;;13.16;59.46
59654;BME280;66556;52.008;5.432;2023-03-12T08:57:36;100741.0;;;13.27;58.82
59654;BME280;66556;52.008;5.432;2023-03-12T08:59:13;100742.0;;;13.79;57.42
59654;BME280;66556;52.008;5.432;2023-03-12T09:00:50;100746.0;;;14.0;56.54
59654;BME280;66556;52.008;5.432;2023-03-12T09:04:04;100752.0;;;14.19;55.94
59654;BME280;66556;52.008;5.432;2023-03-12T09:05:41;100751.0;;;14.02;56.3
59654;BME280;66556;52.008;5.432;2023-03-12T09:07:17;100758.0;;;14.34;55.76
59654;BME280;66556;52.008;5.432;2023-03-12T09:08:53;100760.0;;;14.51;55.41
59654;BME280;66556;52.008;5.432;2023-03-12T09:12:06;100753.0;;;14.25;56.84
59654;BME280;66556;52.008;5.432;2023-03-12T09:13:43;100762.0;;;14.2;57.5
59654;BME280;66556;52.008;5.432;2023-03-12T09:15:20;100766.0;;;13.84;57.91
59654;BME280;66556;52.008;5.432;2023-03-12T09:18:33;100763.0;;;14.24;57.47
59654;BME280;66556;52.008;5.432;2023-03-12T09:20:11;100755.0;;;14.4;56.83
59654;BME280;66556;52.008;5.432;2023-03-12T09:21:47;100749.0;;;14.26;57.81
59654;BME280;66556;52.008;5.432;2023-03-12T09:25:02;100741.0;;;14.56;57.22
59654;BME280;66556;52.008;5.432;2023-03-12T09:26:39;100737.0;;;14.58;57.79
59654;BME280;66556;52.008;5.432;2023-03-12T09:28:15;100739.0;;;14.48;58.7
59654;BME280;66556;52.008;5.432;2023-03-12T09:29:52;100739.0;;;14.38;58.64
59654;BME280;66556;52.008;5.432;2023-03-12T09:33:05;100742.0;;;14.76;58.06
59654;BME280;66556;52.008;5.432;2023-03-12T09:34:42;100743.0;;;14.88;57.45
59654;BME280;66556;52.008;5.432;2023-03-12T09:36:19;100735.0;;;14.64;58.21
59654;BME280;66556;52.008;5.432;2023-03-12T09:39:33;100745.0;;;14.66;57.8
59654;BME280;66556;52.008;5.432;2023-03-12T09:41:16;100755.0;;;14.92;57.3
59654;BME280;66556;52.008;5.432;2023-03-12T09:42:57;100750.0;;;14.51;59.06
59654;BME280;66556;52.008;5.432;2023-03-12T09:44:37;100747.0;;;14.69;58.81
59654;BME280;66556;52.008;5.432;2023-03-12T09:48:02;100750.0;;;15.3;57.02
59654;BME280;66556;52.008;5.432;2023-03-12T09:49:43;100752.0;;;15.54;55.44
59654;BME280;66556;52.008;5.432;2023-03-12T09:51:23;100750.0;;;15.5;55.98
59654;BME280;66556;52.008;5.432;2023-03-12T09:53:09;100746.0;;;15.3;57.54
59654;BME280;66556;52.008;5.432;2023-03-12T09:56:34;100751.0;;;15.17;56.72
59654;BME280;66556;52.008;5.432;2023-03-12T09:58:13;100747.0;;;15.46;57.18
59654;BME280;66556;52.008;5.432;2023-03-12T09:59:52;100750.0;;;15.39;57.37
59654;BME280;66556;52.008;5.432;2023-03-12T10:01:36;100759.0;;;15.73;55.94
59654;BME280;66556;52.008;5.432;2023-03-12T10:03:24;100764.0;;;16.11;54.78
59654;BME280;66556;52.008;5.432;2023-03-12T10:06:54;100764.0;;;15.8;55.96
59654;BME280;66556;52.008;5.432;2023-03-12T10:08:45;100769.0;;;16.02;55.43
59654;BME280;66556;52.008;5.432;2023-03-12T10:10:35;100771.0;;;15.85;56.57
59654;BME280;66556;52.008;5.432;2023-03-12T10:12:31;100764.0;;;15.77;56.63
59654;BME280;66556;52.008;5.432;2023-03-12T10:14:19;100759.0;;;15.75;57.7
59654;BME280;66556;52.008;5.432;2023-03-12T10:16:06;100763.0;;;16.21;55.7
59654;BME280;66556;52.008;5.432;2023-03-12T10:19:51;100757.0;;;16.16;57.44
59654;BME280;66556;52.008;5.432;2023-03-12T10:21:39;100758.0;;;16.34;56.39
59654;BME280;66556;52.008;5.432;2023-03-12T10:23:27;100759.0;;;16.34;56.47
59654;BME280;66556;52.008;5.432;2023-03-12T10:25:15;100747.0;;;16.52;56.25
59654;BME280;66556;52.008;5.432;2023-03-12T10:26:58;100746.0;;;16.89;55.33
59654;BME280;66556;52.008;5.432;2023-03-12T10:28:38;100744.0;;;16.79;55.65
59654;BME280;66556;52.008;5.432;2023-03-12T10:32:03;100740.0;;;17.0;55.55
59654;BME280;66556;52.008;5.432;2023-03-12T10:33:45;100744.0;;;16.54;56.44
59654;BME280;66556;52.008;5.432;2023-03-12T10:35:25;100750.0;;;17.16;55.42
59654;BME280;66556;52.008;5.432;2023-03-12T10:37:08;100748.0;;;17.06;56.41
59654;BME280;66556;52.008;5.432;2023-03-12T10:38:54;100749.0;;;17.0;56.33
59654;BME280;66556;52.008;5.432;2023-03-12T10:42:15;100751.0;;;16.96;57.14
59654;BME280;66556;52.008;5.432;2023-03-12T10:43:53;100751.0;;;16.78;58.02
59654;BME280;66556;52.008;5.432;2023-03-12T10:45:33;100747.0;;;16.84;58.85
59654;BME280;66556;52.008;5.432;2023-03-12T10:47:24;100737.0;;;17.45;57.15
59654;BME280;66556;52.008;5.432;2023-03-12T10:51:13;100740.0;;;17.36;57.31
59654;BME280;66556;52.008;5.432;2023-03-12T10:52:52;100738.0;;;17.41;57.58
59654;BME280;66556;52.008;5.432;2023-03-12T10:54:48;100736.0;;;17.18;58.89
59654;BME280;66556;52.008;5.432;2023-03-12T10:56:25;100737.0;;;17.21;59.39
59654;BME280;66556;52.008;5.432;2023-03-12T10:58:01;100732.0;;;17.53;59.18
59654;BME280;66556;52.008;5.432;2023-03-12T11:01:20;100733.0;;;17.7;59.36
59654;BME280;66556;52.008;5.432;2023-03-12T11:02:59;100738.0;;;17.81;59.69
59654;BME280;66556;52.008;5.432;2023-03-12T11:04:37;100740.0;;;17.77;59.22
59654;BME280;66556;52.008;5.432;2023-03-12T11:06:19;100734.0;;;18.14;58.26
59654;BME280;66556;52.008;5.432;2023-03-12T11:09:37;100733.0;;;18.0;58.93
59654;BME280;66556;52.008;5.432;2023-03-12T11:11:29;100742.0;;;17.7;59.81